Fish Lake Valley, Nevada Weather observations

Data are for 10 minute period ending at time listed.
 Day   Time    Ave.   Ave.  Ave.  Vector   Max.   Stn.    Total    Solar   Ave.  
  of    of     Air    Rel.  Wind   Wind    Wind   Baro.  Precip.   Rad.    Soil  
Year   Day     Temp.  Hum.  Speed  Dir.    Gust   Pres.                    Temp. 
2017   (PST)    F      %     mph   deg.    mph     mb.     in.     W/m2     F    
--------------------------------------------------------------------------------- 
 322    3:50   13.0    81    4.6   189      5.4   861.7    0.00       2    51.1  
 322    4:00   14.2    81    5.3   193      6.0   861.5    0.00       2    51.1  
 322    4:10   15.3    80    5.5   194      6.1   861.5    0.00       2    51.1  
 322    4:20   15.9    79    5.6   195      6.0   861.6    0.00       2    51.1  
 322    4:30   15.4    79    3.5   181      5.7   861.7    0.00       2    51.0  
 322    4:40   15.0    79    2.3   122      3.8   861.7    0.00       2    51.0  
 322    4:50   12.8    78    2.2    49      3.6   861.7    0.00       2    51.0  
 322    5:00   12.2    79    3.5   125      4.2   861.7    0.00       2    51.0  
 322    5:10   11.1    80    3.8   135      4.4   861.7    0.00       2    51.0  
 322    5:20   10.7    81    4.3   150      5.5   861.7    0.00       2    51.0  
 322    5:30   10.8    84    4.1   174      5.0   861.8    0.00       2    50.9  
 322    5:40   10.8    84    3.3   157      4.9   861.9    0.00       2    50.9  
 322    5:50   11.2    83    3.6   162      4.6   862.0    0.00       2    50.9  
 322    6:00   11.2    83    2.8   158      4.6   862.1    0.00       2    50.9  
 322    6:10   11.2    83    3.2   119      3.9   862.3    0.00       2    50.9  
 322    6:20   11.7    83    2.7    97      3.3   862.2    0.00       3    50.8  
 322    6:30   11.3    81    2.5   149      3.3   862.1    0.00       4    50.8  
 322    6:40   10.9    84    3.1   224      4.3   862.1    0.00       8    50.8  
 322    6:50   12.1    83    1.5   178      3.8   862.2    0.00      12    50.8  
 322    7:00   12.8    80    1.9    82      3.6   862.5    0.00      32    50.7  
 322    7:10   14.2    74    1.8    83      3.0   862.6    0.00      61    50.7  
 322    7:20   14.9    76    3.2   159      4.9   862.7    0.00      98    50.7  
 322    7:30   17.0    76    4.3   187      5.2   862.7    0.00     140    50.7  
 322    7:40   19.3    73    3.5   208      4.6   862.8    0.00     178    50.7  
 322    7:50   23.2    67    1.0   196      3.0   862.8    0.00     210    50.6  
 322    8:00   26.1    61    1.2    39      3.0   862.9    0.00     242    50.6  
 322    8:10   24.7    65    2.2    77      3.3   862.9    0.00     274    50.6  
 322    8:20   27.3    62    1.4   161      2.3   862.9    0.00     306    50.6  
 322    8:30   29.2    59    1.9   217      3.1   862.9    0.00     320    50.5  
 322    8:40   30.3    55    0.6   232      3.2   863.0    0.00     370    50.5  
 322    8:50   31.7    51    1.4   341      3.7   863.0    0.00     399    50.5  
 322    9:00   30.9    52    2.5   325      4.2   863.1    0.00     428    50.4  
 322    9:10   30.5    52    3.2   328      5.1   863.0    0.00     456    50.4  
 322    9:20   31.1    50    3.0   310      5.2   862.9    0.00     483    50.4  
 322    9:30   32.0    48    3.2   316      5.2   862.9    0.00     508    50.3  
 322    9:40   32.5    46    3.8   307      5.7   863.0    0.00     531    50.3  
 322    9:50   32.9    45    3.4   304      5.7   862.9    0.00     554    50.3  
 322   10:00   33.8    44    4.0   331      6.9   862.9    0.00     571    50.3  
 322   10:10   34.6    41    4.0   310      6.2   862.9    0.00     590    50.2  
 322   10:20   35.2    40    3.6   312      6.1   862.9    0.00     605    50.2  
 322   10:30   36.3    40    3.6   327      6.5   862.8    0.00     614    50.2  
 322   10:40   36.8    38    4.1   305      6.2   862.7    0.00     625    50.1  
 322   10:50   37.6    37    3.3   306      5.9   862.5    0.00     599    50.1  
 322   11:00   38.4    36    3.4   326      6.1   862.4    0.00     639    50.1  
 322   11:10   38.8    36    3.5   319      5.7   862.3    0.00     645    50.0  
 322   11:20   39.7    34    2.9   288      6.2   862.2    0.00     648    50.0  
 322   11:30   40.4    32    2.9   278      5.4   862.0    0.00     648    50.0  
 322   11:40   41.2    31    2.3   292      6.3   861.7    0.00     647    49.9  
 322   11:50   42.5    29    1.7   203      4.7   861.4    0.00     644    49.9  
 322   12:00   42.9    30    2.5    46      4.9   861.2    0.00     640    49.9  
 322   12:10   43.0    30    2.4    92      4.8   861.1    0.00     636    49.8  
 322   12:20   45.1    28    1.9   133      7.3   860.8    0.00     628    49.8  
 322   12:30   45.1    28    3.1   215      6.9   860.7    0.00     621    49.8  
 322   12:40   46.1    27    2.5   150      6.5   860.4    0.00     610    49.7  
 322   12:50   47.4    26    5.1   166      8.1   860.3    0.00     598    49.7  
 322   13:00   47.4    26    5.1   210      7.6   860.1    0.00     587    49.7  
 322   13:10   47.6    26    4.5   203      7.4   859.8    0.00     572    49.6  
 322   13:20   48.5    23    4.3   162      7.6   859.7    0.00     556    49.6  
 322   13:30   49.4    22    4.2   184      7.7   859.6    0.00     537    49.6  
 322   13:40   49.9    21    2.8   205      6.1   859.5    0.00     517    49.6  
 322   13:50   50.4    22    2.7   244      7.0   859.4    0.00     494    49.5  
 322   14:00   48.1    26    6.3   330      9.3   859.2    0.00     474    49.5  
 322   14:10   47.8    25    5.5   352      8.4   859.3    0.00     450    49.5  
 322   14:20   48.5    22    4.5   285      9.0   859.2    0.00     416    49.4  
 322   14:30   50.0    20    1.8   292      5.4   859.1    0.00     398    49.4  
 322   14:40   50.3    22    4.7   300      9.7   859.0    0.00     371    49.4  
 322   14:50   48.7    26    6.7   329      9.5   859.0    0.00     343    49.4  
 322   15:00   48.6    26    6.0   325      8.2   858.9    0.00     314    49.3  
 322   15:10   48.0    28    7.4   331      9.5   858.8    0.00     285    49.3  
 322   15:20   47.6    28    6.7   331      9.2   858.9    0.00     256    49.3  
 322   15:30   47.5    29    5.8   330      7.9   858.9    0.00     234    49.3  
 322   15:40   47.6    29    5.4   324      6.8   858.8    0.00     227    49.3  
 322   15:50   47.5    28    6.0   320      8.2   858.8    0.00     201    49.2  
 322   16:00   46.2    29    6.1   318      7.9   858.7    0.00     105    49.2  
 322   16:10   44.9    29    5.0   308      6.3   858.6    0.00      52    49.2  
 322   16:20   44.6    27    4.5   298      6.8   858.7    0.00      28    49.2  
 322   16:30   43.5    27    4.3   296      5.9   858.9    0.00      18    49.2  
 322   16:40   42.1    28    4.0   290      4.9   858.9    0.00       9    49.2  
 322   16:50   40.5    30    4.0   272      4.7   859.1    0.00       6    49.2  
 322   17:00   39.4    30    3.8   254      5.7   859.1    0.00       4    49.2  
 322   17:10   36.5    32    5.2   238      5.7   859.1    0.00       2    49.2  
 322   17:20   35.6    33    5.5   237      5.8   859.1    0.00       2    49.2  
 322   17:30   35.1    34    5.1   226      5.4   859.1    0.00       2    49.1  
 322   17:40   32.7    41    4.7   217      5.2   859.2    0.00       2    49.1  
 322   17:50   31.3    46    2.5   110      3.4   859.1    0.00       2    49.1  
 322   18:00   30.6    50    3.5   149      4.6   859.1    0.00       2    49.1  
 322   18:10   30.6    46    4.0   175      4.6   859.2    0.00       2    49.1  
 322   18:20   30.0    48    3.4   144      4.1   859.2    0.00       2    49.1  
 322   18:30   26.0    58    3.6   126      4.4   859.2    0.00       2    49.1  
 322   18:40   24.8    60    3.6   182      4.5   859.3    0.00       2    49.1  
 322   18:50   29.2    45    4.5   204      5.0   859.2    0.00       2    49.1  
 322   19:00   26.3    55    4.1   129      5.4   859.3    0.00       2    49.1  
 322   19:10   22.2    66    4.3   124      5.4   859.3    0.00       2    49.2  
 322   19:20   22.6    64    5.4   157      6.3   859.3    0.00       2    49.2  
 322   19:30   23.1    66    3.0   143      3.9   859.3    0.00       2    49.2  
 322   19:40   23.9    66    3.9   173      6.1   859.3    0.00       2    49.2  
 322   19:50   27.4    57    6.7   177      8.0   859.4    0.00       2    49.2  
 322   20:00   28.4    53    5.4   125      7.1   859.4    0.00       2    49.2  
 322   20:10   25.4    52    5.3    92      6.7   859.4    0.00       2    49.2  
 322   20:20   23.4    57    4.3    96      5.0   859.4    0.00       2    49.2  
 322   20:30   23.2    57    3.5    98      4.2   859.5    0.00       2    49.2  
 322   20:40   23.7    55    3.0    97      4.1   859.4    0.00       2    49.2  
 322   20:50   23.5    54    2.9    89      3.6   859.5    0.00       2    49.2  
 322   21:00   23.2    56    2.7   108      3.6   859.4    0.00       2    49.2  
 322   21:10   21.9    62    2.1   104      3.0   859.4    0.00       2    49.2  
 322   21:20   22.6    59    1.5   132      2.5   859.4    0.00       2    49.2  
 322   21:30   22.2    63    2.9   173      4.1   859.4    0.00       2    49.2  
 322   21:40   23.6    57    3.3   159      3.8   859.4    0.00       2    49.2  
 322   21:50   24.1    57    2.8   101      4.3   859.3    0.00       2    49.2  
 322   22:00   21.5    64    3.4   144      4.3   859.4    0.00       2    49.3  
 322   22:10   21.2    66    4.0   164      4.4   859.4    0.00       2    49.3  
 322   22:20   20.7    70    2.3   181      4.2   859.5    0.00       2    49.3  
 322   22:30   21.0    68    2.1   144      3.3   859.6    0.00       2    49.3  
 322   22:40   21.2    64    4.8   110      5.5   859.5    0.00       2    49.3  
 322   22:50   21.2    67    4.6   149      5.1   859.4    0.00       2    49.3  
 322   23:00   20.5    68    5.5   192      7.4   859.2    0.00       2    49.3  
 322   23:10   23.7    58    6.6   196      7.6   859.2    0.00       2    49.3  
 322   23:20   24.2    57    3.4   144      6.4   859.3    0.00       2    49.3  
 322   23:30   22.7    60    2.9    91      4.6   859.3    0.00       2    49.3  
 322   23:40   20.7    67    3.9   132      5.1   859.2    0.00       2    49.3  
 322   23:50   20.5    65    3.9   144      4.8   859.2    0.00       2    49.3  
 323    0:00   20.4    64    4.5   123      5.2   859.1    0.00       2    49.3  
 323    0:10   19.9    71    3.3   162      4.0   859.1    0.00       2    49.3  
 323    0:20   20.1    71    4.1   124      4.5   859.0    0.00       2    49.3  
 323    0:30   20.3    67    4.3   133      4.9   859.0    0.00       2    49.3  
 323    0:40   20.9    66    5.1   118      5.7   858.9    0.00       2    49.3  
 323    0:50   20.2    70    4.0   146      4.6   858.8    0.00       2    49.3  
 323    1:00   20.0    68    4.2   175      5.5   858.8    0.00       2    49.3  
 323    1:10   20.4    65    1.8   101      3.9   858.9    0.00       2    49.2  
 323    1:20   20.6    66    2.9   127      3.6   858.9    0.00       2    49.2  
 323    1:30   20.1    70    3.5   150      5.0   858.9    0.00       2    49.2  
 323    1:40   19.8    70    4.2   198      6.0   858.8    0.00       2    49.2  
 323    1:50   20.7    64    3.2   178      5.5   858.8    0.00       2    49.2  
 323    2:00   20.6    70    3.2    39      4.3   858.7    0.00       2    49.2  
 323    2:10   20.4    69    0.9    39      3.3   858.5    0.00       2    49.2  
 323    2:20   20.9    66    2.4   153      3.5   858.5    0.00       2    49.2  
 323    2:30   20.1    64    3.6    97      5.9   858.4    0.00       2    49.2  
 323    2:40   18.6    69    3.9   162      4.7   858.3    0.00       2    49.2  
 323    2:50   18.0    69    5.4   191      6.4   858.3    0.00       2    49.2  
 323    3:00   19.5    66    6.6   174      7.6   858.1    0.00       2    49.2  
 323    3:10   18.2    69    3.5   173      6.2   858.2    0.00       2    49.1  
 323    3:20   17.9    69    3.0    36      5.4   858.3    0.00       2    49.1  
 323    3:30   17.1    70    1.4   116      3.3   858.2    0.00       2    49.1  
 323    3:40   17.2    67    2.6   137      3.8   858.1    0.00       2    49.1  

Return to Fish Lake Valley, Nevada graphs page.


Western Regional Climate Center,wrcc@dri.edu